createdAt,value
2022-10-11T00:09:34.920Z,6.51
2022-10-11T00:18:02.127Z,6.53
2022-10-11T00:26:28.367Z,6.53
2022-10-11T00:34:51.658Z,6.48
2022-10-11T00:43:18.266Z,6.37
2022-10-11T00:51:48.419Z,6.31
2022-10-11T01:00:14.379Z,6.31
2022-10-11T01:08:39.706Z,6.33
2022-10-11T01:17:15.739Z,6.28
2022-10-11T01:25:58.939Z,6.25
2022-10-11T01:34:41.687Z,6.28
2022-10-11T01:43:06.289Z,6.37
2022-10-11T01:51:42.975Z,6.47
2022-10-11T02:00:19.893Z,6.55
2022-10-11T02:08:56.386Z,6.54
2022-10-11T02:17:25.725Z,6.46
2022-10-11T02:25:50.173Z,6.37
2022-10-11T02:43:07.926Z,6.22
2022-10-11T02:51:31.778Z,6.11
2022-10-11T02:59:54.462Z,5.95
2022-10-11T03:08:18.153Z,5.79
2022-10-11T03:16:40.899Z,5.64
2022-10-11T03:25:04.796Z,5.54
2022-10-11T03:33:28.217Z,5.48
2022-10-11T03:41:51.386Z,5.49
2022-10-11T03:50:14.083Z,5.51
2022-10-11T03:58:37.023Z,5.56
2022-10-11T04:06:59.930Z,5.66
2022-10-11T04:15:23.291Z,5.79
2022-10-11T04:23:46.304Z,5.94
2022-10-11T04:32:09.334Z,6.13
2022-10-11T04:40:33.482Z,6.28
2022-10-11T04:48:57.360Z,6.35
2022-10-11T04:57:20.039Z,6.41
2022-10-11T05:05:43.214Z,6.46
2022-10-11T05:14:06.192Z,6.59
2022-10-11T05:22:28.926Z,6.72
2022-10-11T05:30:52.544Z,6.90
2022-10-11T05:39:16.227Z,7.08
2022-10-11T05:47:39.001Z,7.13
2022-10-11T05:56:02.179Z,7.15
2022-10-11T06:04:27.375Z,7.17
2022-10-11T06:12:50.562Z,7.16
2022-10-11T06:21:16.630Z,7.24
2022-10-11T06:29:39.451Z,7.43
2022-10-11T06:38:02.206Z,7.63
2022-10-11T06:46:28.297Z,7.87
2022-10-11T06:54:51.047Z,8.03
2022-10-11T07:03:13.813Z,8.27
2022-10-11T07:11:36.570Z,8.42
2022-10-11T07:19:59.546Z,8.80
2022-10-11T07:28:22.984Z,9.33
2022-10-11T07:36:46.969Z,10.32
2022-10-11T07:45:09.908Z,11.28
2022-10-11T07:53:48.620Z,11.95
2022-10-11T08:02:15.305Z,12.07
2022-10-11T08:10:41.587Z,12.31
2022-10-11T08:19:06.517Z,12.55
2022-10-11T08:27:29.307Z,12.96
2022-10-11T08:35:53.343Z,13.12
2022-10-11T08:54:20.388Z,13.27
2022-10-11T09:03:09.072Z,13.56
2022-10-11T09:11:48.951Z,13.91
2022-10-11T09:20:38.296Z,14.14
2022-10-11T09:29:40.058Z,14.08
2022-10-11T09:38:26.200Z,14.29
2022-10-11T09:46:51.054Z,14.31
2022-10-11T09:55:50.413Z,14.01
2022-10-11T10:04:17.144Z,13.87
2022-10-11T10:12:40.808Z,14.15
2022-10-11T10:21:07.989Z,14.17
2022-10-11T10:29:31.650Z,14.04
2022-10-11T10:38:37.784Z,13.99
2022-10-11T10:47:11.591Z,13.98
2022-10-11T10:55:44.377Z,13.84
2022-10-11T11:04:24.818Z,13.78
2022-10-11T11:13:25.249Z,13.81
2022-10-11T11:21:57.580Z,13.89
2022-10-11T11:30:37.551Z,13.83
2022-10-11T11:39:12.019Z,13.58
2022-10-11T11:47:43.282Z,13.37
2022-10-11T11:56:27.911Z,13.34
2022-10-11T12:04:52.262Z,13.38
2022-10-11T12:13:20.447Z,13.49
2022-10-11T12:21:45.040Z,13.59
2022-10-11T12:30:48.257Z,13.30
2022-10-11T12:39:20.057Z,13.23
2022-10-11T12:47:52.633Z,13.25
2022-10-11T12:56:28.264Z,13.18
2022-10-11T13:04:51.697Z,13.41
2022-10-11T13:13:31.033Z,13.59
2022-10-11T13:22:01.607Z,13.43
2022-10-11T13:30:29.564Z,13.27
2022-10-11T13:39:00.811Z,13.44
2022-10-11T13:47:30.501Z,13.56
2022-10-11T13:55:58.971Z,13.33
2022-10-11T14:04:26.092Z,13.04
2022-10-11T14:13:03.284Z,12.90
2022-10-11T14:21:46.261Z,12.83
2022-10-11T14:30:27.385Z,12.75
2022-10-11T14:38:52.490Z,12.72
2022-10-11T14:47:17.770Z,12.68
2022-10-11T14:55:42.247Z,12.58
2022-10-11T15:04:05.298Z,12.42
2022-10-11T15:12:28.010Z,12.22
2022-10-11T15:20:52.903Z,11.98
2022-10-11T15:29:20.444Z,11.71
2022-10-11T15:37:44.142Z,11.48
2022-10-11T15:46:07.162Z,11.20
2022-10-11T15:54:30.728Z,10.84
2022-10-11T16:02:54.432Z,10.47
2022-10-11T16:11:17.862Z,10.10
2022-10-11T16:19:40.597Z,9.79
2022-10-11T16:28:04.532Z,9.51
2022-10-11T16:36:37.106Z,9.22
2022-10-11T16:45:01.203Z,8.88
2022-10-11T16:53:24.144Z,8.54
2022-10-11T17:01:46.914Z,8.21
2022-10-11T17:10:09.850Z,7.89
2022-10-11T17:18:33.304Z,7.70
2022-10-11T17:26:56.029Z,7.54
2022-10-11T17:35:18.926Z,7.33
2022-10-11T17:43:41.993Z,7.20
2022-10-11T17:52:04.794Z,7.06
2022-10-11T18:00:27.504Z,6.87
2022-10-11T18:08:50.907Z,6.69
2022-10-11T18:17:13.704Z,6.51
2022-10-11T18:25:36.706Z,6.32
2022-10-11T18:33:59.502Z,6.20
2022-10-11T18:42:22.323Z,6.05
2022-10-11T18:50:45.025Z,5.83
2022-10-11T18:59:09.892Z,5.70
2022-10-11T19:07:32.609Z,5.58
2022-10-11T19:15:55.432Z,5.41
2022-10-11T19:24:20.378Z,5.29
2022-10-11T19:32:43.329Z,5.13
2022-10-11T19:41:06.146Z,4.94
2022-10-11T19:49:29.218Z,4.81
2022-10-11T19:57:52.003Z,4.70
2022-10-11T20:06:14.924Z,4.56
2022-10-11T20:14:37.700Z,4.44
2022-10-11T20:23:00.470Z,4.31
2022-10-11T20:31:26.455Z,4.17
2022-10-11T20:39:49.271Z,4.05
2022-10-11T20:48:12.342Z,3.93
2022-10-11T20:56:35.510Z,3.80
2022-10-11T21:04:58.925Z,3.66
2022-10-11T21:13:22.727Z,3.50
2022-10-11T21:21:51.111Z,3.36
2022-10-11T21:30:16.334Z,3.23
2022-10-11T21:38:39.799Z,3.15
2022-10-11T21:47:07.376Z,3.09
2022-10-11T21:55:31.538Z,2.96
2022-10-11T22:03:55.004Z,2.82
2022-10-11T22:12:18.570Z,2.72
2022-10-11T22:20:42.641Z,2.65
2022-10-11T22:29:05.779Z,2.57
2022-10-11T22:37:28.823Z,2.49
2022-10-11T22:45:51.753Z,2.42
2022-10-11T22:54:14.870Z,2.36
2022-10-11T23:02:37.882Z,2.22
2022-10-11T23:11:06.653Z,2.13
2022-10-11T23:19:29.496Z,2.03
2022-10-11T23:27:52.428Z,1.91
2022-10-11T23:36:18.440Z,1.85
2022-10-11T23:44:41.331Z,1.82
2022-10-11T23:53:05.645Z,1.78
